sensor_id;sensor_type;location;lat;lon;timestamp;pressure;altitude;pressure_sealevel;temperature;humidity
49979;BME280;35869;50.990;6.962;2023-02-03T00:01:10;102290.31;;;8.26;100.00
49979;BME280;35869;50.990;6.962;2023-02-03T00:06:35;102279.97;;;8.29;100.00
49979;BME280;35869;50.990;6.962;2023-02-03T00:11:49;102264.44;;;8.26;100.00
49979;BME280;35869;50.990;6.962;2023-02-03T00:16:52;102257.59;;;8.19;100.00
49979;BME280;35869;50.990;6.962;2023-02-03T00:21:59;102252.41;;;8.19;100.00
49979;BME280;35869;50.990;6.962;2023-02-03T00:27:02;102247.06;;;8.37;100.00
49979;BME280;35869;50.990;6.962;2023-02-03T00:32:56;102228.19;;;8.24;100.00
49979;BME280;35869;50.990;6.962;2023-02-03T00:43:13;102233.41;;;8.20;100.00
49979;BME280;35869;50.990;6.962;2023-02-03T00:48:14;102243.69;;;8.29;100.00
49979;BME280;35869;50.990;6.962;2023-02-03T00:53:14;102221.28;;;8.23;100.00
49979;BME280;35869;50.990;6.962;2023-02-03T00:58:14;102222.91;;;8.35;100.00
49979;BME280;35869;50.990;6.962;2023-02-03T01:03:15;102235.94;;;8.27;100.00
49979;BME280;35869;50.990;6.962;2023-02-03T01:08:15;102226.44;;;8.25;100.00
49979;BME280;35869;50.990;6.962;2023-02-03T01:13:15;102225.50;;;8.32;100.00
49979;BME280;35869;50.990;6.962;2023-02-03T01:18:16;102240.28;;;8.24;100.00
49979;BME280;35869;50.990;6.962;2023-02-03T01:23:16;102253.22;;;8.27;100.00
49979;BME280;35869;50.990;6.962;2023-02-03T01:28:16;102269.63;;;8.27;100.00
49979;BME280;35869;50.990;6.962;2023-02-03T01:33:16;102266.22;;;8.22;100.00
49979;BME280;35869;50.990;6.962;2023-02-03T01:38:17;102269.59;;;8.29;100.00
49979;BME280;35869;50.990;6.962;2023-02-03T01:43:38;102262.72;;;8.25;100.00
49979;BME280;35869;50.990;6.962;2023-02-03T01:48:38;102271.41;;;8.19;100.00
49979;BME280;35869;50.990;6.962;2023-02-03T01:53:39;102277.38;;;8.27;100.00
49979;BME280;35869;50.990;6.962;2023-02-03T01:58:40;102280.81;;;8.26;100.00
49979;BME280;35869;50.990;6.962;2023-02-03T02:03:45;102272.19;;;8.26;100.00
49979;BME280;35869;50.990;6.962;2023-02-03T02:08:50;102259.25;;;8.26;100.00
49979;BME280;35869;50.990;6.962;2023-02-03T02:13:52;102257.44;;;8.39;100.00
49979;BME280;35869;50.990;6.962;2023-02-03T02:40:18;102245.44;;;8.25;100.00
49979;BME280;35869;50.990;6.962;2023-02-03T02:45:26;102224.88;;;8.12;100.00
49979;BME280;35869;50.990;6.962;2023-02-03T02:50:32;102219.56;;;8.24;100.00
49979;BME280;35869;50.990;6.962;2023-02-03T02:55:36;102215.25;;;8.24;100.00
49979;BME280;35869;50.990;6.962;2023-02-03T03:00:39;102230.00;;;8.18;100.00
49979;BME280;35869;50.990;6.962;2023-02-03T03:05:41;102236.72;;;8.34;100.00
49979;BME280;35869;50.990;6.962;2023-02-03T03:10:42;102235.16;;;8.19;100.00
49979;BME280;35869;50.990;6.962;2023-02-03T03:15:43;102232.44;;;8.33;100.00
49979;BME280;35869;50.990;6.962;2023-02-03T03:20:46;102211.75;;;8.25;100.00
49979;BME280;35869;50.990;6.962;2023-02-03T03:25:54;102209.25;;;8.21;100.00
49979;BME280;35869;50.990;6.962;2023-02-03T03:30:57;102220.41;;;8.27;100.00
49979;BME280;35869;50.990;6.962;2023-02-03T03:41:27;102213.47;;;8.29;100.00
49979;BME280;35869;50.990;6.962;2023-02-03T03:46:36;102228.16;;;8.26;100.00
49979;BME280;35869;50.990;6.962;2023-02-03T03:51:42;102217.72;;;8.35;100.00
49979;BME280;35869;50.990;6.962;2023-02-03T03:56:53;102215.22;;;8.26;100.00
49979;BME280;35869;50.990;6.962;2023-02-03T04:01:55;102198.78;;;8.30;100.00
49979;BME280;35869;50.990;6.962;2023-02-03T04:06:56;102222.06;;;8.32;100.00
49979;BME280;35869;50.990;6.962;2023-02-03T04:11:56;102213.41;;;8.34;100.00
49979;BME280;35869;50.990;6.962;2023-02-03T04:16:57;102193.53;;;8.39;100.00
49979;BME280;35869;50.990;6.962;2023-02-03T04:21:57;102187.53;;;8.33;100.00
49979;BME280;35869;50.990;6.962;2023-02-03T04:26:58;102209.94;;;8.37;100.00
49979;BME280;35869;50.990;6.962;2023-02-03T04:31:58;102225.56;;;8.26;100.00
49979;BME280;35869;50.990;6.962;2023-02-03T04:36:58;102209.19;;;8.27;100.00
49979;BME280;35869;50.990;6.962;2023-02-03T04:41:58;102205.66;;;8.34;100.00
49979;BME280;35869;50.990;6.962;2023-02-03T04:46:59;102201.28;;;8.41;100.00
49979;BME280;35869;50.990;6.962;2023-02-03T04:51:59;102210.75;;;8.43;100.00
49979;BME280;35869;50.990;6.962;2023-02-03T04:56:59;102196.19;;;8.30;100.00
49979;BME280;35869;50.990;6.962;2023-02-03T05:02:03;102189.28;;;8.29;100.00
49979;BME280;35869;50.990;6.962;2023-02-03T05:07:03;102192.72;;;8.31;100.00
49979;BME280;35869;50.990;6.962;2023-02-03T05:12:04;102178.88;;;8.32;100.00
49979;BME280;35869;50.990;6.962;2023-02-03T05:17:04;102196.16;;;8.32;100.00
49979;BME280;35869;50.990;6.962;2023-02-03T05:22:04;102175.41;;;8.38;100.00
49979;BME280;35869;50.990;6.962;2023-02-03T05:27:04;102168.59;;;8.27;100.00
49979;BME280;35869;50.990;6.962;2023-02-03T05:32:05;102167.75;;;8.27;100.00
49979;BME280;35869;50.990;6.962;2023-02-03T05:37:05;102161.63;;;8.33;100.00
49979;BME280;35869;50.990;6.962;2023-02-03T05:42:05;102172.03;;;8.26;100.00
49979;BME280;35869;50.990;6.962;2023-02-03T05:47:05;102183.34;;;8.21;100.00
49979;BME280;35869;50.990;6.962;2023-02-03T05:52:05;102179.88;;;8.22;100.00
49979;BME280;35869;50.990;6.962;2023-02-03T05:57:06;102181.59;;;8.23;100.00
49979;BME280;35869;50.990;6.962;2023-02-03T06:02:06;102179.00;;;8.23;100.00
49979;BME280;35869;50.990;6.962;2023-02-03T06:07:06;102200.44;;;8.40;100.00
49979;BME280;35869;50.990;6.962;2023-02-03T06:12:06;102194.41;;;8.35;100.00
49979;BME280;35869;50.990;6.962;2023-02-03T06:17:07;102198.75;;;8.36;100.00
49979;BME280;35869;50.990;6.962;2023-02-03T06:22:07;102209.94;;;8.40;100.00
49979;BME280;35869;50.990;6.962;2023-02-03T06:27:07;102191.81;;;8.35;100.00
49979;BME280;35869;50.990;6.962;2023-02-03T06:32:08;102197.84;;;8.37;100.00
49979;BME280;35869;50.990;6.962;2023-02-03T06:37:08;102194.38;;;8.41;100.00
49979;BME280;35869;50.990;6.962;2023-02-03T06:42:09;102198.75;;;8.36;100.00
49979;BME280;35869;50.990;6.962;2023-02-03T06:47:09;102210.81;;;8.37;100.00
49979;BME280;35869;50.990;6.962;2023-02-03T06:52:09;102205.63;;;8.39;100.00
49979;BME280;35869;50.990;6.962;2023-02-03T06:57:09;102205.53;;;8.46;100.00
49979;BME280;35869;50.990;6.962;2023-02-03T07:02:10;102209.81;;;8.50;100.00
49979;BME280;35869;50.990;6.962;2023-02-03T07:07:11;102204.75;;;8.40;100.00
49979;BME280;35869;50.990;6.962;2023-02-03T07:12:11;102209.88;;;8.46;100.00
49979;BME280;35869;50.990;6.962;2023-02-03T07:17:11;102212.53;;;8.40;100.00
49979;BME280;35869;50.990;6.962;2023-02-03T07:22:12;102198.75;;;8.36;100.00
49979;BME280;35869;50.990;6.962;2023-02-03T07:27:12;102210.66;;;8.49;100.00
49979;BME280;35869;50.990;6.962;2023-02-03T07:32:12;102216.66;;;8.54;100.00
49979;BME280;35869;50.990;6.962;2023-02-03T07:37:13;102214.25;;;8.39;100.00
49979;BME280;35869;50.990;6.962;2023-02-03T07:42:13;102221.16;;;8.40;100.00
49979;BME280;35869;50.990;6.962;2023-02-03T07:47:13;102211.66;;;8.38;100.00
49979;BME280;35869;50.990;6.962;2023-02-03T07:52:13;102217.59;;;8.50;100.00
49979;BME280;35869;50.990;6.962;2023-02-03T07:57:13;102217.66;;;8.43;100.00
49979;BME280;35869;50.990;6.962;2023-02-03T08:02:14;102217.50;;;8.55;100.00
49979;BME280;35869;50.990;6.962;2023-02-03T08:07:14;102221.09;;;8.45;100.00
49979;BME280;35869;50.990;6.962;2023-02-03T08:12:14;102226.22;;;8.49;100.00
49979;BME280;35869;50.990;6.962;2023-02-03T08:17:14;102224.47;;;8.50;100.00
49979;BME280;35869;50.990;6.962;2023-02-03T08:22:15;102227.03;;;8.56;100.00
49979;BME280;35869;50.990;6.962;2023-02-03T08:27:19;102245.25;;;8.47;100.00
49979;BME280;35869;50.990;6.962;2023-02-03T08:32:21;102242.56;;;8.58;100.00
49979;BME280;35869;50.990;6.962;2023-02-03T08:37:22;102253.81;;;8.57;100.00
49979;BME280;35869;50.990;6.962;2023-02-03T08:42:22;102258.22;;;8.47;100.00
49979;BME280;35869;50.990;6.962;2023-02-03T08:47:22;102264.91;;;8.66;100.00
49979;BME280;35869;50.990;6.962;2023-02-03T08:52:23;102269.34;;;8.57;100.00
49979;BME280;35869;50.990;6.962;2023-02-03T08:57:23;102251.22;;;8.53;100.00
49979;BME280;35869;50.990;6.962;2023-02-03T09:02:23;102245.94;;;8.63;100.00
49979;BME280;35869;50.990;6.962;2023-02-03T09:07:23;102258.06;;;8.59;100.00
49979;BME280;35869;50.990;6.962;2023-02-03T09:12:24;102270.97;;;8.65;100.00
49979;BME280;35869;50.990;6.962;2023-02-03T09:17:24;102272.91;;;8.43;100.00
49979;BME280;35869;50.990;6.962;2023-02-03T09:22:24;102261.41;;;8.67;100.00
49979;BME280;35869;50.990;6.962;2023-02-03T09:27:24;102261.66;;;8.47;100.00
49979;BME280;35869;50.990;6.962;2023-02-03T09:32:25;102281.28;;;8.70;100.00
49979;BME280;35869;50.990;6.962;2023-02-03T09:37:28;102261.50;;;8.61;100.00
49979;BME280;35869;50.990;6.962;2023-02-03T09:42:53;102260.47;;;8.76;100.00
49979;BME280;35869;50.990;6.962;2023-02-03T09:47:59;102261.56;;;8.57;100.00
49979;BME280;35869;50.990;6.962;2023-02-03T09:53:06;102256.06;;;8.82;100.00
49979;BME280;35869;50.990;6.962;2023-02-03T09:58:17;102252.97;;;8.53;100.00
49979;BME280;35869;50.990;6.962;2023-02-03T10:13:39;102285.69;;;8.63;100.00
49979;BME280;35869;50.990;6.962;2023-02-03T10:18:50;102289.09;;;8.68;100.00
49979;BME280;35869;50.990;6.962;2023-02-03T10:23:51;102295.06;;;8.73;100.00
49979;BME280;35869;50.990;6.962;2023-02-03T10:28:57;102291.00;;;8.49;100.00
49979;BME280;35869;50.990;6.962;2023-02-03T10:34:08;102288.28;;;8.62;100.00
49979;BME280;35869;50.990;6.962;2023-02-03T10:44:36;102286.50;;;8.65;100.00
49979;BME280;35869;50.990;6.962;2023-02-03T10:49:37;102290.94;;;8.54;100.00
49979;BME280;35869;50.990;6.962;2023-02-03T10:54:38;102274.53;;;8.57;100.00
49979;BME280;35869;50.990;6.962;2023-02-03T10:59:43;102259.00;;;8.53;100.00
49979;BME280;35869;50.990;6.962;2023-02-03T11:04:44;102283.91;;;8.68;100.00
49979;BME280;35869;50.990;6.962;2023-02-03T11:09:44;102286.63;;;8.56;100.00
49979;BME280;35869;50.990;6.962;2023-02-03T11:14:47;102288.28;;;8.62;100.00
49979;BME280;35869;50.990;6.962;2023-02-03T11:19:49;102269.22;;;8.66;100.00
49979;BME280;35869;50.990;6.962;2023-02-03T11:24:50;102256.16;;;8.73;100.00
49979;BME280;35869;50.990;6.962;2023-02-03T11:30:16;102253.72;;;8.63;100.00
49979;BME280;35869;50.990;6.962;2023-02-03T11:35:23;102260.59;;;8.65;100.00
49979;BME280;35869;50.990;6.962;2023-02-03T11:50:43;102284.69;;;8.73;100.00
49979;BME280;35869;50.990;6.962;2023-02-03T12:11:48;102273.38;;;8.80;100.00
49979;BME280;35869;50.990;6.962;2023-02-03T12:17:10;102275.00;;;8.89;100.00
49979;BME280;35869;50.990;6.962;2023-02-03T12:22:28;102260.28;;;8.93;100.00
49979;BME280;35869;50.990;6.962;2023-02-03T12:32:58;102266.25;;;8.98;100.00
49979;BME280;35869;50.990;6.962;2023-02-03T12:38:11;102261.88;;;9.03;100.00
49979;BME280;35869;50.990;6.962;2023-02-03T12:43:18;102260.25;;;8.94;100.00
49979;BME280;35869;50.990;6.962;2023-02-03T12:48:41;102274.88;;;8.98;100.00
49979;BME280;35869;50.990;6.962;2023-02-03T12:53:51;102259.34;;;8.95;100.00
49979;BME280;35869;50.990;6.962;2023-02-03T12:58:57;102255.81;;;9.04;100.00
49979;BME280;35869;50.990;6.962;2023-02-03T13:14:35;102273.75;;;9.18;100.00
49979;BME280;35869;50.990;6.962;2023-02-03T13:19:47;102265.97;;;9.18;100.00
49979;BME280;35869;50.990;6.962;2023-02-03T13:30:31;102263.44;;;9.15;100.00
49979;BME280;35869;50.990;6.962;2023-02-03T13:41:06;102267.56;;;9.28;100.00
49979;BME280;35869;50.990;6.962;2023-02-03T13:51:42;102278.00;;;9.23;100.00
49979;BME280;35869;50.990;6.962;2023-02-03T13:56:53;102273.81;;;9.13;100.00
49979;BME280;35869;50.990;6.962;2023-02-03T14:12:34;102261.53;;;9.26;100.00
49979;BME280;35869;50.990;6.962;2023-02-03T14:22:38;102276.09;;;9.36;100.00
49979;BME280;35869;50.990;6.962;2023-02-03T14:27:38;102274.38;;;9.35;100.00
49979;BME280;35869;50.990;6.962;2023-02-03T14:32:50;102287.25;;;9.44;100.00
49979;BME280;35869;50.990;6.962;2023-02-03T14:37:59;102283.69;;;9.51;100.00
49979;BME280;35869;50.990;6.962;2023-02-03T14:43:13;102266.50;;;9.41;100.00
49979;BME280;35869;50.990;6.962;2023-02-03T14:59:12;102280.66;;;9.77;100.00
49979;BME280;35869;50.990;6.962;2023-02-03T15:09:27;102285.16;;;9.66;100.00
49979;BME280;35869;50.990;6.962;2023-02-03T15:14:30;102294.66;;;9.69;100.00
49979;BME280;35869;50.990;6.962;2023-02-03T15:19:36;102286.06;;;9.65;100.00
49979;BME280;35869;50.990;6.962;2023-02-03T15:24:37;102317.09;;;9.71;100.00
49979;BME280;35869;50.990;6.962;2023-02-03T15:29:37;102318.00;;;9.70;100.00
49979;BME280;35869;50.990;6.962;2023-02-03T15:34:42;102324.03;;;9.71;100.00
49979;BME280;35869;50.990;6.962;2023-02-03T15:40:08;102332.78;;;9.65;100.00
49979;BME280;35869;50.990;6.962;2023-02-03T15:50:41;102339.59;;;9.72;100.00
49979;BME280;35869;50.990;6.962;2023-02-03T15:55:46;102339.69;;;9.68;100.00
49979;BME280;35869;50.990;6.962;2023-02-03T16:00:52;102365.56;;;9.74;100.00
49979;BME280;35869;50.990;6.962;2023-02-03T16:05:54;102380.41;;;9.63;100.00
49979;BME280;35869;50.990;6.962;2023-02-03T16:10:54;102395.25;;;9.53;100.00
49979;BME280;35869;50.990;6.962;2023-02-03T16:16:02;102399.63;;;9.51;100.00
49979;BME280;35869;50.990;6.962;2023-02-03T16:21:04;102402.38;;;9.37;100.00
49979;BME280;35869;50.990;6.962;2023-02-03T16:26:17;102402.66;;;9.13;100.00
49979;BME280;35869;50.990;6.962;2023-02-03T16:31:19;102418.88;;;9.33;100.00
49979;BME280;35869;50.990;6.962;2023-02-03T16:36:20;102425.78;;;9.32;100.00
49979;BME280;35869;50.990;6.962;2023-02-03T16:41:20;102424.16;;;9.24;100.00
49979;BME280;35869;50.990;6.962;2023-02-03T16:46:20;102424.88;;;9.35;100.00
49979;BME280;35869;50.990;6.962;2023-02-03T16:51:21;102414.47;;;9.37;100.00
49979;BME280;35869;50.990;6.962;2023-02-03T16:56:22;102417.22;;;9.24;100.00
49979;BME280;35869;50.990;6.962;2023-02-03T17:01:23;102422.47;;;9.20;100.00
49979;BME280;35869;50.990;6.962;2023-02-03T17:06:23;102435.53;;;9.11;100.00
49979;BME280;35869;50.990;6.962;2023-02-03T17:11:23;102432.84;;;9.20;100.00
49979;BME280;35869;50.990;6.962;2023-02-03T17:16:25;102439.88;;;9.10;100.00
49979;BME280;35869;50.990;6.962;2023-02-03T17:21:31;102448.59;;;9.01;100.00
49979;BME280;35869;50.990;6.962;2023-02-03T17:26:32;102456.44;;;8.95;100.00
49979;BME280;35869;50.990;6.962;2023-02-03T17:31:33;102458.88;;;9.11;100.00
49979;BME280;35869;50.990;6.962;2023-02-03T17:36:33;102464.22;;;8.98;100.00
49979;BME280;35869;50.990;6.962;2023-02-03T17:41:34;102455.63;;;8.92;100.00
49979;BME280;35869;50.990;6.962;2023-02-03T17:46:34;102474.59;;;8.95;100.00
49979;BME280;35869;50.990;6.962;2023-02-03T17:51:34;102466.84;;;8.91;100.00
49979;BME280;35869;50.990;6.962;2023-02-03T17:56:34;102471.19;;;8.90;100.00
49979;BME280;35869;50.990;6.962;2023-02-03T18:01:34;102481.66;;;8.79;100.00
49979;BME280;35869;50.990;6.962;2023-02-03T18:06:35;102487.88;;;8.55;100.00
49979;BME280;35869;50.990;6.962;2023-02-03T18:11:36;102501.66;;;8.65;100.00
49979;BME280;35869;50.990;6.962;2023-02-03T18:16:36;102505.97;;;8.68;100.00
49979;BME280;35869;50.990;6.962;2023-02-03T18:21:37;102506.03;;;8.59;100.00
49979;BME280;35869;50.990;6.962;2023-02-03T18:26:46;102511.25;;;8.49;100.00
49979;BME280;35869;50.990;6.962;2023-02-03T18:31:47;102516.44;;;8.52;100.00
49979;BME280;35869;50.990;6.962;2023-02-03T18:36:47;102528.59;;;8.41;100.00
49979;BME280;35869;50.990;6.962;2023-02-03T18:41:47;102535.50;;;8.42;100.00
49979;BME280;35869;50.990;6.962;2023-02-03T18:46:47;102554.50;;;8.41;100.00
49979;BME280;35869;50.990;6.962;2023-02-03T18:51:47;102551.09;;;8.25;100.00
49979;BME280;35869;50.990;6.962;2023-02-03T18:56:48;102556.25;;;8.36;100.00
49979;BME280;35869;50.990;6.962;2023-02-03T19:01:48;102560.56;;;8.34;100.00
49979;BME280;35869;50.990;6.962;2023-02-03T19:06:48;102557.97;;;8.31;100.00
49979;BME280;35869;50.990;6.962;2023-02-03T19:11:48;102553.72;;;8.22;100.00
49979;BME280;35869;50.990;6.962;2023-02-03T19:16:49;102559.78;;;8.14;100.00
49979;BME280;35869;50.990;6.962;2023-02-03T19:21:50;102557.22;;;8.15;100.00
49979;BME280;35869;50.990;6.962;2023-02-03T19:26:50;102565.84;;;8.11;100.00
49979;BME280;35869;50.990;6.962;2023-02-03T19:31:50;102571.88;;;8.15;100.00
49979;BME280;35869;50.990;6.962;2023-02-03T19:36:51;102570.16;;;8.14;100.00
49979;BME280;35869;50.990;6.962;2023-02-03T19:41:51;102575.34;;;8.12;100.00
49979;BME280;35869;50.990;6.962;2023-02-03T19:46:52;102591.78;;;8.10;100.00
49979;BME280;35869;50.990;6.962;2023-02-03T19:51:52;102588.31;;;8.08;100.00
49979;BME280;35869;50.990;6.962;2023-02-03T19:56:52;102593.44;;;8.14;100.00
49979;BME280;35869;50.990;6.962;2023-02-03T20:01:52;102603.81;;;8.18;100.00
49979;BME280;35869;50.990;6.962;2023-02-03T20:06:53;102600.34;;;8.18;100.00
49979;BME280;35869;50.990;6.962;2023-02-03T20:11:53;102602.09;;;8.13;100.00
49979;BME280;35869;50.990;6.962;2023-02-03T20:16:53;102609.88;;;8.13;100.00
49979;BME280;35869;50.990;6.962;2023-02-03T20:21:53;102620.22;;;8.08;100.00
49979;BME280;35869;50.990;6.962;2023-02-03T20:26:54;102634.03;;;8.09;100.00
49979;BME280;35869;50.990;6.962;2023-02-03T20:31:54;102633.19;;;8.11;100.00
49979;BME280;35869;50.990;6.962;2023-02-03T20:36:54;102637.50;;;8.14;100.00
49979;BME280;35869;50.990;6.962;2023-02-03T20:41:54;102640.94;;;8.13;100.00
49979;BME280;35869;50.990;6.962;2023-02-03T20:46:55;102645.25;;;8.17;100.00
49979;BME280;35869;50.990;6.962;2023-02-03T20:51:55;102640.06;;;8.18;100.00
49979;BME280;35869;50.990;6.962;2023-02-03T20:56:55;102630.53;;;8.25;100.00
49979;BME280;35869;50.990;6.962;2023-02-03T21:01:55;102645.25;;;8.21;100.00
49979;BME280;35869;50.990;6.962;2023-02-03T21:06:56;102652.16;;;8.19;100.00
49979;BME280;35869;50.990;6.962;2023-02-03T21:11:56;102660.81;;;8.11;100.00
49979;BME280;35869;50.990;6.962;2023-02-03T21:16:56;102663.41;;;8.17;100.00
49979;BME280;35869;50.990;6.962;2023-02-03T21:21:58;102682.38;;;8.13;100.00
49979;BME280;35869;50.990;6.962;2023-02-03T21:26:59;102684.09;;;8.14;100.00
49979;BME280;35869;50.990;6.962;2023-02-03T21:31:59;102664.25;;;8.08;100.00
49979;BME280;35869;50.990;6.962;2023-02-03T21:37:06;102670.34;;;7.95;100.00
49979;BME280;35869;50.990;6.962;2023-02-03T21:42:25;102667.72;;;8.13;100.00
49979;BME280;35869;50.990;6.962;2023-02-03T21:47:27;102676.38;;;8.09;100.00
49979;BME280;35869;50.990;6.962;2023-02-03T21:52:27;102682.38;;;8.13;100.00
49979;BME280;35869;50.990;6.962;2023-02-03T21:57:27;102687.59;;;8.10;100.00
49979;BME280;35869;50.990;6.962;2023-02-03T22:02:56;102686.75;;;8.00;100.00
49979;BME280;35869;50.990;6.962;2023-02-03T22:07:57;102691.03;;;8.09;100.00
49979;BME280;35869;50.990;6.962;2023-02-03T22:12:57;102695.38;;;7.97;100.00
49979;BME280;35869;50.990;6.962;2023-02-03T22:17:58;102703.13;;;8.00;100.00
49979;BME280;35869;50.990;6.962;2023-02-03T22:22:58;102714.34;;;8.02;100.00
49979;BME280;35869;50.990;6.962;2023-02-03T22:27:58;102711.78;;;7.95;100.00
49979;BME280;35869;50.990;6.962;2023-02-03T22:32:58;102719.53;;;7.99;100.00
49979;BME280;35869;50.990;6.962;2023-02-03T22:37:59;102728.19;;;7.94;100.00
49979;BME280;35869;50.990;6.962;2023-02-03T22:42:59;102730.78;;;7.92;100.00
49979;BME280;35869;50.990;6.962;2023-02-03T22:47:59;102720.41;;;7.94;100.00
49979;BME280;35869;50.990;6.962;2023-02-03T22:52:59;102740.25;;;7.90;100.00
49979;BME280;35869;50.990;6.962;2023-02-03T22:58:00;102757.53;;;7.99;100.00
49979;BME280;35869;50.990;6.962;2023-02-03T23:03:00;102761.84;;;7.86;100.00
49979;BME280;35869;50.990;6.962;2023-02-03T23:08:01;102763.56;;;7.89;100.00
49979;BME280;35869;50.990;6.962;2023-02-03T23:13:01;102771.31;;;7.90;100.00
49979;BME280;35869;50.990;6.962;2023-02-03T23:18:01;102768.75;;;7.86;100.00
49979;BME280;35869;50.990;6.962;2023-02-03T23:23:01;102780.81;;;7.85;100.00
49979;BME280;35869;50.990;6.962;2023-02-03T23:28:02;102793.78;;;7.81;100.00
49979;BME280;35869;50.990;6.962;2023-02-03T23:33:02;102787.72;;;7.77;100.00
49979;BME280;35869;50.990;6.962;2023-02-03T23:38:02;102774.78;;;7.85;100.00
49979;BME280;35869;50.990;6.962;2023-02-03T23:43:03;102778.22;;;7.91;100.00
49979;BME280;35869;50.990;6.962;2023-02-03T23:48:03;102797.22;;;7.95;100.00
49979;BME280;35869;50.990;6.962;2023-02-03T23:53:03;102807.56;;;7.90;100.00
49979;BME280;35869;50.990;6.962;2023-02-03T23:58:04;102809.31;;;7.88;100.00
